Darstellungsparameter: Aktuell verwendete Einstellungen:
Skalierung der Graphiken ... ?
xyx+y,   Skalierungsfaktor:      Skalierung: Modus: x, Faktor: 1
Darstellungszeitraum ... ?
Vom - - bis: - -   Zeitraum: 15.05.2020 - 21.05.2020
Min/Max/Avg-Anzeige ... ?
Zeige MMA aktuell
Zeige MMA Monat
Zeige MMA alles
Zeige --A aktuell
Zeige --A Monat
Zeige --A alles
Keine MMA-Anzeige
MMA:
Keine MMA-Graphiken
MMA-Basis: 15.05.2020 - 21.05.2020
Quicknavigation für Darstellung... ?
Tage:      1T, 2T, 3T, 5T -1T -2T -3T -5T +1T +2T +3T +5T
Wochen: 1W, 2W, 3W -1W -2W -3W +1W +2W +3W
Monate: 1M, 3M, 6M -1M -3M -6M +1M +3M +6M
Jahre:    1J, 3J, 5J, 10J -1J -3J -5J -10J +1J +3J +5J +10J
Nutze für die Darstellung ... ?
Originaldaten oder Mittelwerte auf ...
Stundenbasis Tagesbasis Wochenbasis
Monatsbasis Jahresbasis      Datenbasis: Original-Daten
Darstellen als:
Statistik (Auto) Statistik J:M      Darstellung:
Zur Graphik,    zurück zur Übersicht aller Sensoren.
 
Tabellarische Datenbersicht: ?
 
Sensor: Nr:Datum:Temp:Feuchte:
Aussen-T/F 1 15-05-2020 00:04:18 6.8 C 31 %
2 15-05-2020 00:14:18 6.4 C 31 %
3 15-05-2020 00:24:17 5.6 C 34 %
4 15-05-2020 00:34:18 4.9 C 36 %
5 15-05-2020 00:44:18 4.8 C 36 %
6 15-05-2020 00:54:18 5.2 C 35 %
7 15-05-2020 01:04:17 5.4 C 35 %
8 15-05-2020 01:14:17 5.2 C 35 %
9 15-05-2020 01:24:17 5.1 C 35 %
10 15-05-2020 01:34:18 5.3 C 35 %
11 15-05-2020 01:44:18 5.2 C 35 %
12 15-05-2020 01:54:17 5.2 C 35 %
13 15-05-2020 02:04:17 5.2 C 35 %
14 15-05-2020 02:14:17 4.9 C 35 %
15 15-05-2020 02:24:17 4.9 C 35 %
16 15-05-2020 02:34:17 4.7 C 35 %
17 15-05-2020 02:44:17 4.5 C 35 %
18 15-05-2020 02:54:17 4.1 C 36 %
19 15-05-2020 03:04:17 3.8 C 38 %
20 15-05-2020 03:14:17 3.5 C 38 %
21 15-05-2020 03:24:17 3.2 C 39 %
22 15-05-2020 03:34:17 3.1 C 39 %
23 15-05-2020 03:44:17 3.1 C 40 %
24 15-05-2020 03:54:17 3.3 C 39 %
25 15-05-2020 04:04:17 3.1 C 40 %
Sensor: Nr:Datum:Temp:Feuchte:
Aussen-T/F 26 15-05-2020 04:14:17 2.9 C 40 %
27 15-05-2020 04:24:17 2.6 C 41 %
28 15-05-2020 04:34:18 2.3 C 41 %
29 15-05-2020 04:44:18 2.1 C 41 %
30 15-05-2020 04:54:17 2 C 42 %
31 15-05-2020 05:04:18 1.8 C 42 %
32 15-05-2020 05:14:18 1.6 C 43 %
33 15-05-2020 05:24:18 1.6 C 44 %
34 15-05-2020 05:34:17 1.5 C 44 %
35 15-05-2020 05:44:17 1.5 C 45 %
36 15-05-2020 05:54:17 1.5 C 45 %
37 15-05-2020 06:04:17 1.4 C 45 %
38 15-05-2020 06:14:17 1.4 C 45 %
39 15-05-2020 06:24:17 1.4 C 45 %
40 15-05-2020 06:34:17 1.5 C 46 %
41 15-05-2020 06:44:17 1.5 C 46 %
42 15-05-2020 06:54:18 1.8 C 45 %
43 15-05-2020 07:04:17 2.2 C 45 %
44 15-05-2020 07:14:17 2.8 C 42 %
45 15-05-2020 07:24:17 3.2 C 41 %
46 15-05-2020 07:34:18 3.4 C 41 %
47 15-05-2020 07:44:18 3.8 C 40 %
48 15-05-2020 07:54:18 4 C 40 %
49 15-05-2020 08:04:18 4.1 C 40 %
50 15-05-2020 08:14:18 4.6 C 39 %
Sensor: Nr:Datum:Temp:Feuchte:
Aussen-T/F 51 15-05-2020 08:24:18 4.8 C 39 %
52 15-05-2020 08:34:18 4.8 C 39 %
53 15-05-2020 08:44:18 5.9 C 37 %
54 15-05-2020 08:54:17 5.8 C 37 %
55 15-05-2020 09:04:18 6.5 C 36 %
56 15-05-2020 09:14:18 6.9 C 36 %
57 15-05-2020 09:24:17 7.5 C 35 %
58 15-05-2020 09:34:18 8.8 C 32 %
59 15-05-2020 09:44:18 9.5 C 30 %
60 15-05-2020 09:54:18 10.1 C 29 %
61 15-05-2020 10:04:17 10.3 C 28 %
62 15-05-2020 10:14:18 10.8 C 28 %
63 15-05-2020 10:24:17 11.1 C 26 %
64 15-05-2020 10:34:17 11.2 C 26 %
65 15-05-2020 10:44:17 12.1 C 25 %
66 15-05-2020 10:54:18 12.9 C 25 %
67 15-05-2020 11:04:17 12.8 C 25 %
68 15-05-2020 11:14:17 13.1 C 20 %
69 15-05-2020 11:24:17 13.2 C 20 %
70 15-05-2020 11:34:17 13.8 C 20 %
71 15-05-2020 11:44:17 14 C 20 %
72 15-05-2020 11:54:17 14.6 C 20 %
73 15-05-2020 12:04:17 14.3 C 20 %
74 15-05-2020 12:14:17 14.7 C 20 %
75 15-05-2020 12:24:18 14.6 C 20 %
Sensor: Nr:Datum:Temp:Feuchte:
Aussen-T/F 76 15-05-2020 12:34:17 14.8 C 20 %
77 15-05-2020 12:44:17 14.7 C 20 %
78 15-05-2020 12:54:17 15 C 20 %
79 15-05-2020 13:04:17 15.1 C 20 %
80 15-05-2020 13:14:17 15.2 C 20 %
81 15-05-2020 13:24:17 15.6 C 20 %
82 15-05-2020 13:34:18 15.1 C 20 %
83 15-05-2020 13:44:18 16.3 C 20 %
84 15-05-2020 13:54:17 19.5 C 20 %
85 15-05-2020 14:04:17 23.4 C 20 %
86 15-05-2020 14:14:17 23.3 C 20 %
87 15-05-2020 14:24:17 23.8 C 20 %
88 15-05-2020 14:34:18 22.9 C 20 %
89 15-05-2020 14:44:18 23.1 C 20 %
90 15-05-2020 14:54:17 25.4 C 20 %
91 15-05-2020 15:04:17 26.3 C 20 %
92 15-05-2020 15:14:17 24.6 C 20 %
93 15-05-2020 15:24:18 24.5 C 20 %
94 15-05-2020 15:34:18 24.4 C 20 %
95 15-05-2020 15:44:18 24.2 C 20 %
96 15-05-2020 15:54:18 24.5 C 20 %
97 15-05-2020 16:04:18 24.5 C 20 %
98 15-05-2020 16:14:18 24.5 C 20 %
99 15-05-2020 16:24:18 22 C 20 %
100 15-05-2020 16:34:18 24 C 20 %
Sensor: Nr:Datum:Temp:Feuchte:
Aussen-T/F 101 15-05-2020 16:44:18 25.1 C 20 %
102 15-05-2020 16:54:17 22.6 C 20 %
103 15-05-2020 17:04:17 22 C 20 %
104 15-05-2020 17:14:17 22.4 C 20 %
105 15-05-2020 17:24:17 25.2 C 20 %
106 15-05-2020 17:34:17 22.7 C 20 %
107 15-05-2020 17:44:17 22.5 C 20 %
108 15-05-2020 17:54:17 21.2 C 20 %
109 15-05-2020 18:04:17 21.1 C 20 %
110 15-05-2020 18:14:17 18.7 C 20 %
111 15-05-2020 18:24:17 17.7 C 20 %
112 15-05-2020 18:34:17 18.1 C 20 %
113 15-05-2020 18:44:18 17.7 C 20 %
114 15-05-2020 18:54:17 16.9 C 20 %
115 15-05-2020 19:04:17 16.8 C 20 %
116 15-05-2020 19:14:17 16.9 C 20 %
117 15-05-2020 19:24:17 16.8 C 20 %
118 15-05-2020 19:34:18 16.6 C 20 %
119 15-05-2020 19:44:18 16 C 20 %
120 15-05-2020 19:54:17 15.8 C 20 %
121 15-05-2020 20:04:18 15.6 C 20 %
122 15-05-2020 20:14:18 15.3 C 20 %
123 15-05-2020 20:24:17 15.1 C 20 %
124 15-05-2020 20:34:17 14.8 C 20 %
125 15-05-2020 20:44:17 14.2 C 20 %
Sensor: Nr:Datum:Temp:Feuchte:
Aussen-T/F 126 15-05-2020 20:54:17 13.5 C 20 %
127 15-05-2020 21:04:17 12.1 C 20 %
128 15-05-2020 21:14:17 11.8 C 20 %
129 15-05-2020 21:24:17 10.9 C 20 %
130 15-05-2020 21:34:17 10.7 C 20 %
131 15-05-2020 21:44:17 10.4 C 20 %
132 15-05-2020 21:54:17 11.6 C 20 %
133 15-05-2020 22:04:17 10.5 C 20 %
134 15-05-2020 22:14:17 9.9 C 25 %
135 15-05-2020 22:24:17 9.5 C 26 %
136 15-05-2020 22:34:18 9.2 C 26 %
137 15-05-2020 22:44:18 9 C 27 %
138 15-05-2020 22:54:18 9.1 C 27 %
139 15-05-2020 23:04:18 8.9 C 28 %
140 15-05-2020 23:14:18 9 C 28 %
141 15-05-2020 23:24:18 9.2 C 27 %
142 15-05-2020 23:34:17 8.5 C 29 %
143 15-05-2020 23:44:17 8.5 C 28 %
144 15-05-2020 23:54:17 8.4 C 28 %
145 16-05-2020 00:04:17 8 C 29 %
146 16-05-2020 00:14:17 8.2 C 28 %
147 16-05-2020 00:24:17 7.8 C 30 %
148 16-05-2020 00:34:18 7.5 C 30 %
149 16-05-2020 00:44:18 7.1 C 31 %
150 16-05-2020 00:54:17 6.5 C 33 %
Sensor: Nr:Datum:Temp:Feuchte:
Aussen-T/F 151 16-05-2020 01:04:17 6 C 34 %
152 16-05-2020 01:14:17 5.6 C 35 %
153 16-05-2020 01:24:17 5.1 C 36 %
154 16-05-2020 01:34:17 4.8 C 37 %
155 16-05-2020 01:44:17 4.6 C 37 %
156 16-05-2020 01:54:17 4.4 C 38 %
157 16-05-2020 02:04:17 4.3 C 38 %
158 16-05-2020 02:14:17 4.3 C 39 %
159 16-05-2020 02:24:18 4.1 C 39 %
160 16-05-2020 02:34:17 3.8 C 40 %
161 16-05-2020 02:44:17 3.7 C 40 %
162 16-05-2020 02:54:18 3.6 C 40 %
163 16-05-2020 03:04:17 3.5 C 41 %
164 16-05-2020 03:14:17 3.4 C 41 %
165 16-05-2020 03:24:18 3.2 C 41 %
166 16-05-2020 03:34:18 3.7 C 41 %
167 16-05-2020 03:44:18 3.2 C 42 %
168 16-05-2020 03:54:17 3.2 C 41 %
169 16-05-2020 04:04:17 3 C 42 %
170 16-05-2020 04:14:17 2.9 C 43 %
171 16-05-2020 04:24:17 2.7 C 43 %
172 16-05-2020 04:34:18 2.5 C 43 %
173 16-05-2020 04:44:18 2.6 C 44 %
174 16-05-2020 04:54:17 2.7 C 44 %
175 16-05-2020 05:04:17 2.4 C 44 %
Sensor: Nr:Datum:Temp:Feuchte:
Aussen-T/F 176 16-05-2020 05:14:17 2.5 C 45 %
177 16-05-2020 05:24:17 2.5 C 44 %
178 16-05-2020 05:34:17 2.3 C 44 %
179 16-05-2020 05:44:17 2.1 C 44 %
180 16-05-2020 05:54:17 2.1 C 45 %
181 16-05-2020 06:04:17 2.3 C 45 %
182 16-05-2020 06:14:17 2.2 C 45 %
183 16-05-2020 06:24:17 2.1 C 45 %
184 16-05-2020 06:34:18 2.2 C 45 %
185 16-05-2020 06:44:18 2.4 C 45 %
186 16-05-2020 06:54:18 2.4 C 45 %
187 16-05-2020 07:04:17 2.4 C 45 %
188 16-05-2020 07:14:17 2.7 C 45 %
189 16-05-2020 07:24:18 2.7 C 45 %
190 16-05-2020 07:34:17 3 C 44 %
191 16-05-2020 07:44:17 3.2 C 44 %
192 16-05-2020 07:54:17 3.4 C 43 %
193 16-05-2020 08:04:17 3.6 C 43 %
194 16-05-2020 08:14:17 4 C 42 %
195 16-05-2020 08:24:17 4.4 C 41 %
196 16-05-2020 08:34:17 4.6 C 41 %
197 16-05-2020 08:44:17 5.3 C 40 %
198 16-05-2020 08:54:17 5.7 C 40 %
199 16-05-2020 09:04:17 6.1 C 39 %
200 16-05-2020 09:14:17 6.6 C 38 %
Sensor: Nr:Datum:Temp:Feuchte:
Aussen-T/F 201 16-05-2020 09:24:17 7.4 C 37 %
202 16-05-2020 09:34:17 8.1 C 36 %
203 16-05-2020 09:44:18 8.8 C 36 %
204 16-05-2020 09:54:17 9.6 C 35 %
205 16-05-2020 10:04:17 10.2 C 32 %
206 16-05-2020 10:14:17 10.8 C 32 %
207 16-05-2020 10:24:17 11.7 C 31 %
208 16-05-2020 10:34:17 12.4 C 29 %
209 16-05-2020 10:44:17 13.1 C 21 %
210 16-05-2020 10:54:17 13.5 C 21 %
211 16-05-2020 11:04:17 14.2 C 20 %
212 16-05-2020 11:14:17 14.5 C 20 %
213 16-05-2020 11:24:17 14.7 C 20 %
214 16-05-2020 11:34:17 14.3 C 20 %
215 16-05-2020 11:44:17 15.5 C 20 %
216 16-05-2020 11:54:17 15.1 C 20 %
217 16-05-2020 12:04:18 15.6 C 20 %
218 16-05-2020 12:14:18 15.4 C 20 %
219 16-05-2020 12:24:17 14.8 C 20 %
220 16-05-2020 12:34:17 15.1 C 20 %
221 16-05-2020 12:44:17 15.1 C 20 %
222 16-05-2020 12:54:17 15.6 C 20 %
223 16-05-2020 13:04:18 15.5 C 20 %
224 16-05-2020 13:14:18 15.8 C 20 %
225 16-05-2020 13:24:17 16.5 C 20 %
Sensor: Nr:Datum:Temp:Feuchte:
Aussen-T/F 226 16-05-2020 13:34:17 16.5 C 20 %
227 16-05-2020 13:44:17 17.3 C 20 %
228 16-05-2020 13:54:18 21.1 C 20 %
229 16-05-2020 14:04:18 21.6 C 20 %
230 16-05-2020 14:14:18 25.7 C 20 %
231 16-05-2020 14:24:17 25.2 C 20 %
232 16-05-2020 14:34:17 25 C 20 %
233 16-05-2020 14:44:17 23.5 C 20 %
234 16-05-2020 14:54:17 23.9 C 20 %
235 16-05-2020 15:04:17 24.7 C 20 %
236 16-05-2020 15:14:17 24.6 C 20 %
237 16-05-2020 15:24:17 24.7 C 20 %
238 16-05-2020 15:34:17 22.4 C 20 %
239 16-05-2020 15:44:18 23.5 C 20 %
240 16-05-2020 15:54:18 24.6 C 20 %
241 16-05-2020 16:04:18 24.3 C 20 %
242 16-05-2020 16:14:18 26.8 C 20 %
243 16-05-2020 16:24:18 24.3 C 20 %
244 16-05-2020 16:34:17 22.9 C 20 %
245 16-05-2020 16:44:17 23.4 C 20 %
246 16-05-2020 16:54:17 21.3 C 20 %
247 16-05-2020 17:04:17 21.6 C 20 %
248 16-05-2020 17:14:17 20.7 C 20 %
249 16-05-2020 17:24:18 20.6 C 20 %
250 16-05-2020 17:34:17 20.7 C 20 %
Sensor: Nr:Datum:Temp:Feuchte:
Aussen-T/F 251 16-05-2020 17:44:17 20.4 C 20 %
252 16-05-2020 17:54:17 20 C 20 %
253 16-05-2020 18:04:18 20.7 C 20 %
254 16-05-2020 18:14:18 20.9 C 20 %
255 16-05-2020 18:24:17 19.7 C 20 %
256 16-05-2020 18:34:17 20.7 C 20 %
257 16-05-2020 18:44:17 20.1 C 20 %
258 16-05-2020 18:54:17 19 C 20 %
259 16-05-2020 19:04:17 18.7 C 20 %
260 16-05-2020 19:14:18 18.1 C 20 %
261 16-05-2020 19:24:17 18 C 20 %
262 16-05-2020 19:34:17 18.1 C 20 %
263 16-05-2020 19:44:17 17.9 C 20 %
264 16-05-2020 19:54:18 18.1 C 20 %
265 16-05-2020 20:04:17 17.7 C 20 %
266 16-05-2020 20:14:17 17.4 C 20 %
267 16-05-2020 20:24:18 17 C 20 %
268 16-05-2020 20:34:17 16.5 C 20 %
269 16-05-2020 20:44:17 16 C 20 %
270 16-05-2020 20:54:18 14.5 C 20 %
271 16-05-2020 21:04:18 13.7 C 23 %
272 16-05-2020 21:14:18 13.6 C 20 %
273 16-05-2020 21:24:18 13.8 C 20 %
274 16-05-2020 21:34:18 13.4 C 23 %
275 16-05-2020 21:44:18 13.2 C 23 %
Sensor: Nr:Datum:Temp:Feuchte:
Aussen-T/F 276 16-05-2020 21:54:17 13.2 C 24 %
277 16-05-2020 22:04:17 13 C 23 %
278 16-05-2020 22:14:17 13 C 23 %
279 16-05-2020 22:24:17 12.7 C 25 %
280 16-05-2020 22:34:17 12.6 C 25 %
281 16-05-2020 22:44:17 12.6 C 25 %
282 16-05-2020 22:54:17 12.3 C 25 %
283 16-05-2020 23:04:17 11.7 C 27 %
284 16-05-2020 23:14:17 12.2 C 26 %
285 16-05-2020 23:24:18 12.1 C 26 %
286 16-05-2020 23:34:18 11.8 C 27 %
287 16-05-2020 23:44:18 11 C 29 %
288 16-05-2020 23:54:17 11.2 C 29 %
289 17-05-2020 00:04:17 11.6 C 28 %
290 17-05-2020 00:14:17 10.7 C 30 %
291 17-05-2020 00:24:17 10.9 C 30 %
292 17-05-2020 00:34:18 10.7 C 30 %
293 17-05-2020 00:44:18 10 C 31 %
294 17-05-2020 00:54:17 9.8 C 32 %
295 17-05-2020 01:04:17 9.9 C 32 %
296 17-05-2020 01:14:17 9.5 C 33 %
297 17-05-2020 01:24:17 9.4 C 33 %
298 17-05-2020 01:34:18 9.3 C 33 %
299 17-05-2020 01:44:18 9 C 33 %
300 17-05-2020 01:54:17 8.8 C 35 %
Sensor: Nr:Datum:Temp:Feuchte:
Aussen-T/F 301 17-05-2020 02:04:17 9 C 33 %
302 17-05-2020 02:14:17 9.2 C 33 %
303 17-05-2020 02:24:17 9.1 C 33 %
304 17-05-2020 02:34:18 9 C 34 %
305 17-05-2020 02:44:18 8.6 C 35 %
306 17-05-2020 02:54:17 8.5 C 35 %
307 17-05-2020 03:04:17 8.2 C 36 %
308 17-05-2020 03:14:17 8.5 C 36 %
309 17-05-2020 03:24:17 8.3 C 36 %
310 17-05-2020 03:34:17 8.3 C 36 %
311 17-05-2020 03:44:18 8.5 C 36 %
312 17-05-2020 03:54:17 8.2 C 36 %
313 17-05-2020 04:04:17 8.2 C 36 %
314 17-05-2020 04:14:17 7.7 C 37 %
315 17-05-2020 04:24:17 7.8 C 38 %
316 17-05-2020 04:34:18 7.4 C 38 %
317 17-05-2020 04:44:18 7 C 39 %
318 17-05-2020 04:54:17 7.1 C 39 %
319 17-05-2020 05:04:17 6.8 C 40 %
320 17-05-2020 05:14:17 6.8 C 40 %
321 17-05-2020 05:24:17 6.8 C 40 %
322 17-05-2020 05:34:18 6.8 C 40 %
323 17-05-2020 05:44:18 6.4 C 40 %
324 17-05-2020 05:54:18 6.5 C 40 %
325 17-05-2020 06:04:17 6.4 C 40 %
Sensor: Nr:Datum:Temp:Feuchte:
Aussen-T/F 326 17-05-2020 06:14:17 6.5 C 40 %
327 17-05-2020 06:24:17 6.3 C 40 %
328 17-05-2020 06:34:17 6.5 C 40 %
329 17-05-2020 06:44:17 6.7 C 40 %
330 17-05-2020 06:54:17 6.6 C 40 %
331 17-05-2020 07:04:17 6.5 C 40 %
332 17-05-2020 07:14:17 6.5 C 40 %
333 17-05-2020 07:24:18 6.4 C 41 %
334 17-05-2020 07:34:17 6.6 C 41 %
335 17-05-2020 07:44:17 6.7 C 41 %
336 17-05-2020 07:54:17 6.8 C 40 %
337 17-05-2020 08:04:17 7.1 C 40 %
338 17-05-2020 08:14:17 7.1 C 40 %
339 17-05-2020 08:24:17 7.3 C 40 %
340 17-05-2020 08:34:17 7.5 C 40 %
341 17-05-2020 08:44:17 8.1 C 38 %
342 17-05-2020 08:54:17 9 C 37 %
343 17-05-2020 09:04:17 9.8 C 35 %
344 17-05-2020 09:14:17 10.4 C 35 %
345 17-05-2020 09:24:17 11.2 C 32 %
346 17-05-2020 09:34:17 12.5 C 31 %
347 17-05-2020 09:44:17 12 C 30 %
348 17-05-2020 09:54:17 12.2 C 29 %
349 17-05-2020 10:04:17 12.4 C 28 %
350 17-05-2020 10:14:17 13 C 27 %
Sensor: Nr:Datum:Temp:Feuchte:
Aussen-T/F 351 17-05-2020 10:24:17 13.7 C 25 %
352 17-05-2020 10:34:18 13.9 C 26 %
353 17-05-2020 10:44:18 14.8 C 25 %
354 17-05-2020 10:54:17 14 C 25 %
355 17-05-2020 11:04:18 14.3 C 25 %
356 17-05-2020 11:14:18 14.1 C 25 %
357 17-05-2020 11:24:17 14.2 C 25 %
358 17-05-2020 11:34:18 14.3 C 24 %
359 17-05-2020 11:44:18 14.3 C 25 %
360 17-05-2020 11:54:17 15 C 23 %
361 17-05-2020 12:04:18 14.7 C 23 %
362 17-05-2020 12:14:18 15.4 C 21 %
363 17-05-2020 12:24:17 15.4 C 20 %
364 17-05-2020 12:34:17 15.1 C 22 %
365 17-05-2020 12:44:17 15.1 C 21 %
366 17-05-2020 12:54:17 14.8 C 22 %
367 17-05-2020 13:04:17 15.3 C 21 %
368 17-05-2020 13:14:17 15.8 C 21 %
369 17-05-2020 13:24:17 16 C 20 %
370 17-05-2020 13:34:18 16.3 C 20 %
371 17-05-2020 13:44:18 17.1 C 20 %
372 17-05-2020 13:54:17 20.1 C 20 %
373 17-05-2020 14:04:17 23.5 C 20 %
374 17-05-2020 14:14:17 23.5 C 20 %
375 17-05-2020 14:24:17 22.3 C 20 %
Sensor: Nr:Datum:Temp:Feuchte:
Aussen-T/F 376 17-05-2020 14:34:17 26.4 C 20 %
377 17-05-2020 14:44:17 27.4 C 20 %
378 17-05-2020 14:54:17 27.8 C 20 %
379 17-05-2020 15:04:18 24.2 C 20 %
380 17-05-2020 15:14:18 24.3 C 20 %
381 17-05-2020 15:24:18 24.6 C 20 %
382 17-05-2020 15:34:18 25.9 C 20 %
383 17-05-2020 15:44:18 25.7 C 20 %
384 17-05-2020 15:54:17 24.2 C 20 %
385 17-05-2020 16:04:17 26.3 C 20 %
386 17-05-2020 16:14:17 24.6 C 20 %
387 17-05-2020 16:24:17 27.6 C 20 %
388 17-05-2020 16:34:17 24.8 C 20 %
389 17-05-2020 16:44:17 28.3 C 20 %
390 17-05-2020 16:54:18 27.9 C 20 %
391 17-05-2020 17:04:18 27 C 20 %
392 17-05-2020 17:14:18 28.4 C 20 %
393 17-05-2020 17:24:18 27.3 C 20 %
394 17-05-2020 17:34:18 27.7 C 20 %
395 17-05-2020 17:44:18 25.2 C 20 %
396 17-05-2020 17:54:17 26.2 C 20 %
397 17-05-2020 18:04:17 26.9 C 20 %
398 17-05-2020 18:14:18 24.1 C 20 %
399 17-05-2020 18:24:17 21 C 20 %
400 17-05-2020 18:34:17 20.5 C 20 %
Sensor: Nr:Datum:Temp:Feuchte:
Aussen-T/F 401 17-05-2020 18:44:17 19.9 C 20 %
402 17-05-2020 18:54:17 19.5 C 20 %
403 17-05-2020 19:04:18 19.5 C 20 %
404 17-05-2020 19:14:18 19.5 C 20 %
405 17-05-2020 19:24:17 19.1 C 20 %
406 17-05-2020 19:34:17 19.1 C 20 %
407 17-05-2020 19:44:17 18.7 C 20 %
408 17-05-2020 19:54:17 18.7 C 20 %
409 17-05-2020 20:04:18 18.6 C 20 %
410 17-05-2020 20:14:18 18.4 C 20 %
411 17-05-2020 20:24:17 18.1 C 20 %
412 17-05-2020 20:34:17 17.7 C 20 %
413 17-05-2020 20:44:17 17.2 C 20 %
414 17-05-2020 20:54:17 15.5 C 20 %
415 17-05-2020 21:04:17 15.1 C 20 %
416 17-05-2020 21:14:17 14.8 C 20 %
417 17-05-2020 21:24:17 14.4 C 20 %
418 17-05-2020 21:34:18 14.1 C 20 %
419 17-05-2020 21:44:18 13.8 C 21 %
420 17-05-2020 21:54:17 13.6 C 21 %
421 17-05-2020 22:04:17 13.5 C 21 %
422 17-05-2020 22:14:17 13.3 C 21 %
423 17-05-2020 22:24:17 12.9 C 25 %
424 17-05-2020 22:34:17 12.3 C 26 %
425 17-05-2020 22:44:17 11.8 C 28 %
Sensor: Nr:Datum:Temp:Feuchte:
Aussen-T/F 426 17-05-2020 22:54:18 11 C 30 %
427 17-05-2020 23:04:17 10.6 C 31 %
428 17-05-2020 23:14:17 10.1 C 32 %
429 17-05-2020 23:24:17 9.9 C 33 %
430 17-05-2020 23:34:17 9.8 C 33 %
431 17-05-2020 23:44:17 9.5 C 34 %
432 17-05-2020 23:54:17 9.1 C 35 %
433 18-05-2020 00:04:18 9 C 35 %
434 18-05-2020 00:14:18 9 C 35 %
435 18-05-2020 00:24:17 9 C 35 %
436 18-05-2020 00:34:18 8.6 C 35 %
437 18-05-2020 00:44:18 8.5 C 35 %
438 18-05-2020 00:54:17 8.5 C 36 %
439 18-05-2020 01:04:18 8.2 C 36 %
440 18-05-2020 01:14:18 8.3 C 36 %
441 18-05-2020 01:24:17 8.4 C 36 %
442 18-05-2020 01:34:17 8 C 36 %
443 18-05-2020 01:44:17 8 C 36 %
444 18-05-2020 01:54:18 8 C 36 %
445 18-05-2020 02:04:18 8 C 36 %
446 18-05-2020 02:14:18 7.6 C 37 %
447 18-05-2020 02:24:17 7.6 C 38 %
448 18-05-2020 02:34:17 7.7 C 38 %
449 18-05-2020 02:44:17 7.3 C 38 %
450 18-05-2020 02:54:17 7 C 38 %
Sensor: Nr:Datum:Temp:Feuchte:
Aussen-T/F 451 18-05-2020 03:04:17 6.7 C 39 %
452 18-05-2020 03:14:17 6.5 C 40 %
453 18-05-2020 03:24:17 6.6 C 40 %
454 18-05-2020 03:34:17 6.9 C 40 %
455 18-05-2020 03:44:17 6.8 C 40 %
456 18-05-2020 03:54:17 6.5 C 40 %
457 18-05-2020 04:04:17 6.5 C 40 %
458 18-05-2020 04:14:17 6.3 C 40 %
459 18-05-2020 04:24:17 6 C 40 %
460 18-05-2020 04:34:18 6.1 C 41 %
461 18-05-2020 04:44:18 5.8 C 41 %
462 18-05-2020 04:54:17 5.9 C 42 %
463 18-05-2020 05:04:17 5.9 C 42 %
464 18-05-2020 05:14:17 5.9 C 42 %
465 18-05-2020 05:24:17 5.6 C 42 %
466 18-05-2020 05:34:18 5.4 C 42 %
467 18-05-2020 05:44:18 5.4 C 42 %
468 18-05-2020 05:54:17 5.6 C 43 %
469 18-05-2020 06:04:18 5.6 C 42 %
470 18-05-2020 06:14:18 5.6 C 43 %
471 18-05-2020 06:24:17 5.7 C 43 %
472 18-05-2020 06:34:18 5.7 C 43 %
473 18-05-2020 06:44:18 6 C 42 %
474 18-05-2020 06:54:17 6.2 C 42 %
475 18-05-2020 07:04:17 6.3 C 42 %
Sensor: Nr:Datum:Temp:Feuchte:
Aussen-T/F 476 18-05-2020 07:14:18 6.5 C 42 %
477 18-05-2020 07:24:18 6.6 C 42 %
478 18-05-2020 07:34:18 6.7 C 42 %
479 18-05-2020 07:44:18 7 C 41 %
480 18-05-2020 07:54:18 7.3 C 41 %
481 18-05-2020 08:04:17 7.7 C 41 %
482 18-05-2020 08:14:17 8.1 C 40 %
483 18-05-2020 08:24:17 8.5 C 40 %
484 18-05-2020 08:34:18 9 C 38 %
485 18-05-2020 08:44:18 9.4 C 38 %
486 18-05-2020 08:54:17 10.2 C 37 %
487 18-05-2020 09:04:18 10.7 C 36 %
488 18-05-2020 09:14:18 11.3 C 35 %
489 18-05-2020 09:24:17 11.8 C 35 %
490 18-05-2020 09:34:17 11.9 C 35 %
491 18-05-2020 09:44:18 13.1 C 33 %
492 18-05-2020 09:54:17 13.7 C 32 %
493 18-05-2020 10:04:17 14 C 32 %
494 18-05-2020 10:14:17 14.4 C 32 %
495 18-05-2020 10:24:17 15.2 C 30 %
496 18-05-2020 10:34:17 16.5 C 28 %
497 18-05-2020 10:44:17 18.3 C 22 %
498 18-05-2020 10:54:17 19 C 20 %
499 18-05-2020 11:04:17 19.7 C 20 %
500 18-05-2020 11:14:17 19.7 C 20 %
Sensor: Nr:Datum:Temp:Feuchte:
Aussen-T/F 501 18-05-2020 11:24:17 20 C 20 %
502 18-05-2020 11:34:17 20.4 C 20 %
503 18-05-2020 11:44:17 20.5 C 20 %
504 18-05-2020 11:54:18 20.9 C 20 %
505 18-05-2020 12:04:17 21.1 C 20 %
506 18-05-2020 12:14:18 21.2 C 20 %
507 18-05-2020 12:24:17 21.2 C 20 %
508 18-05-2020 12:34:18 20.9 C 20 %
509 18-05-2020 12:44:18 21.3 C 20 %
510 18-05-2020 12:54:17 21.5 C 20 %
511 18-05-2020 13:04:17 21.5 C 20 %
512 18-05-2020 13:14:17 21.9 C 20 %
513 18-05-2020 13:24:17 22.1 C 20 %
514 18-05-2020 13:34:17 22.6 C 20 %
515 18-05-2020 13:44:17 23.4 C 20 %
516 18-05-2020 13:54:17 25.6 C 20 %
517 18-05-2020 14:04:18 26.3 C 20 %
518 18-05-2020 14:14:18 26.8 C 20 %
519 18-05-2020 14:24:17 28.1 C 20 %
520 18-05-2020 14:34:17 30.5 C 20 %
521 18-05-2020 14:44:17 29.3 C 20 %
522 18-05-2020 14:54:17 26.7 C 20 %
523 18-05-2020 15:04:18 27.7 C 20 %
524 18-05-2020 15:14:18 30.7 C 20 %
525 18-05-2020 15:24:17 31.6 C 20 %
Sensor: Nr:Datum:Temp:Feuchte:
Aussen-T/F 526 18-05-2020 15:34:18 32.8 C 20 %
527 18-05-2020 15:44:18 32 C 20 %
528 18-05-2020 15:54:18 31.9 C 20 %
529 18-05-2020 16:04:18 31.6 C 20 %
530 18-05-2020 16:14:18 32.7 C 20 %
531 18-05-2020 16:24:18 32.5 C 20 %
532 18-05-2020 16:34:18 32.5 C 20 %
533 18-05-2020 16:44:18 32 C 20 %
534 18-05-2020 16:54:17 30.6 C 20 %
535 18-05-2020 17:04:18 32.2 C 20 %
536 18-05-2020 17:14:18 31.2 C 20 %
537 18-05-2020 17:24:18 29.5 C 20 %
538 18-05-2020 17:34:17 30.2 C 20 %
539 18-05-2020 17:44:17 29.7 C 20 %
540 18-05-2020 17:54:18 29.7 C 20 %
541 18-05-2020 18:04:17 30.5 C 20 %
542 18-05-2020 18:14:17 30 C 20 %
543 18-05-2020 18:24:17 26.6 C 20 %
544 18-05-2020 18:34:17 26 C 20 %
545 18-05-2020 18:44:17 25.5 C 20 %
546 18-05-2020 18:54:17 25.5 C 20 %
547 18-05-2020 19:04:17 25.1 C 20 %
548 18-05-2020 19:14:17 24.9 C 20 %
549 18-05-2020 19:24:17 24.3 C 20 %
550 18-05-2020 19:34:17 24 C 20 %
Sensor: Nr:Datum:Temp:Feuchte:
Aussen-T/F 551 18-05-2020 19:44:18 23.8 C 20 %
552 18-05-2020 19:54:17 23.5 C 20 %
553 18-05-2020 20:04:18 23.1 C 20 %
554 18-05-2020 20:14:18 22.9 C 20 %
555 18-05-2020 20:24:17 22.7 C 20 %
556 18-05-2020 20:34:17 22.5 C 20 %
557 18-05-2020 20:44:17 22 C 20 %
558 18-05-2020 20:54:17 20.4 C 20 %
559 18-05-2020 21:04:17 20 C 20 %
560 18-05-2020 21:14:17 19.3 C 21 %
561 18-05-2020 21:24:17 18.9 C 22 %
562 18-05-2020 21:34:18 18.7 C 22 %
563 18-05-2020 21:44:18 18.3 C 22 %
564 18-05-2020 21:54:17 18 C 23 %
565 18-05-2020 22:04:17 17.8 C 25 %
566 18-05-2020 22:14:17 17.5 C 25 %
567 18-05-2020 22:24:17 17.4 C 25 %
568 18-05-2020 22:34:17 16.8 C 26 %
569 18-05-2020 22:44:17 16.2 C 27 %
570 18-05-2020 22:54:18 16.4 C 27 %
571 18-05-2020 23:04:18 16.3 C 27 %
572 18-05-2020 23:14:18 16 C 28 %
573 18-05-2020 23:24:18 15.5 C 29 %
574 18-05-2020 23:34:17 15 C 30 %
575 18-05-2020 23:44:17 15.3 C 30 %
Sensor: Nr:Datum:Temp:Feuchte:
Aussen-T/F 576 18-05-2020 23:54:17 14.6 C 31 %
577 19-05-2020 00:04:17 14 C 32 %
578 19-05-2020 00:14:18 13.4 C 33 %
579 19-05-2020 00:24:17 12.9 C 35 %
580 19-05-2020 00:34:18 12.5 C 35 %
581 19-05-2020 00:44:18 12.4 C 35 %
582 19-05-2020 00:54:17 12.2 C 35 %
583 19-05-2020 01:04:17 12 C 36 %
584 19-05-2020 01:14:17 11.9 C 37 %
585 19-05-2020 01:24:17 11.5 C 37 %
586 19-05-2020 01:34:17 11.5 C 38 %
587 19-05-2020 01:44:17 11.2 C 38 %
588 19-05-2020 01:54:17 11 C 37 %
589 19-05-2020 02:04:17 11.2 C 37 %
590 19-05-2020 02:14:17 10.9 C 38 %
591 19-05-2020 02:24:17 10.8 C 38 %
592 19-05-2020 02:34:17 10.2 C 39 %
593 19-05-2020 02:44:17 10 C 39 %
594 19-05-2020 02:54:18 9.7 C 40 %
595 19-05-2020 03:04:18 9.5 C 40 %
596 19-05-2020 03:14:18 9.3 C 41 %
597 19-05-2020 03:24:17 9.2 C 41 %
598 19-05-2020 03:34:17 9 C 41 %
599 19-05-2020 03:44:17 8.7 C 42 %
600 19-05-2020 03:54:17 8.5 C 42 %
Sensor: Nr:Datum:Temp:Feuchte:
Aussen-T/F 601 19-05-2020 04:04:17 8.5 C 43 %
602 19-05-2020 04:14:17 8.6 C 42 %
603 19-05-2020 04:24:17 8.7 C 42 %
604 19-05-2020 04:34:17 8.6 C 42 %
605 19-05-2020 04:44:17 8.5 C 41 %
606 19-05-2020 04:54:17 8.3 C 41 %
607 19-05-2020 05:04:17 8.3 C 41 %
608 19-05-2020 05:14:17 7.9 C 42 %
609 19-05-2020 05:24:17 7.9 C 42 %
610 19-05-2020 05:34:17 7.9 C 42 %
611 19-05-2020 05:44:17 7.8 C 42 %
612 19-05-2020 05:54:17 7.6 C 42 %
613 19-05-2020 06:04:18 7.6 C 42 %
614 19-05-2020 06:14:18 7.8 C 43 %
615 19-05-2020 06:24:17 7.9 C 43 %
616 19-05-2020 06:34:18 7.9 C 42 %
617 19-05-2020 06:44:18 7.8 C 42 %
618 19-05-2020 06:54:18 7.8 C 42 %
619 19-05-2020 07:04:18 8 C 42 %
620 19-05-2020 07:14:18 8.4 C 42 %
621 19-05-2020 07:24:18 8.3 C 41 %
622 19-05-2020 07:34:17 8.4 C 41 %
623 19-05-2020 07:44:17 8.6 C 41 %
624 19-05-2020 07:54:17 8.6 C 41 %
625 19-05-2020 08:04:17 9 C 41 %
Sensor: Nr:Datum:Temp:Feuchte:
Aussen-T/F 626 19-05-2020 08:14:17 9.1 C 41 %
627 19-05-2020 08:24:17 9.6 C 40 %
628 19-05-2020 08:34:17 9.9 C 40 %
629 19-05-2020 08:44:17 10.3 C 39 %
630 19-05-2020 08:54:17 10.9 C 39 %
631 19-05-2020 09:04:17 11.3 C 37 %
632 19-05-2020 09:14:17 12.2 C 36 %
633 19-05-2020 09:24:17 13 C 34 %
634 19-05-2020 09:34:17 13.7 C 34 %
635 19-05-2020 09:44:17 14.8 C 32 %
636 19-05-2020 09:54:18 15 C 30 %
637 19-05-2020 10:04:17 15.3 C 30 %
638 19-05-2020 10:14:17 16.1 C 28 %
639 19-05-2020 10:24:18 16.6 C 28 %
640 19-05-2020 10:34:17 17.7 C 25 %
641 19-05-2020 10:44:17 18.5 C 22 %
642 19-05-2020 10:54:17 19.6 C 20 %
643 19-05-2020 11:04:17 21.2 C 20 %
644 19-05-2020 11:14:17 21.7 C 20 %
645 19-05-2020 11:24:17 21.7 C 20 %
646 19-05-2020 11:34:18 20.9 C 20 %
647 19-05-2020 11:44:18 21.4 C 20 %
648 19-05-2020 11:54:17 21.7 C 20 %
649 19-05-2020 12:04:17 21.3 C 20 %
650 19-05-2020 12:14:17 21.2 C 20 %
Sensor: Nr:Datum:Temp:Feuchte:
Aussen-T/F 651 19-05-2020 12:24:18 21.3 C 20 %
652 19-05-2020 12:34:17 21.2 C 20 %
653 19-05-2020 12:44:17 21.8 C 20 %
654 19-05-2020 12:54:17 22.5 C 20 %
655 19-05-2020 13:04:17 23.3 C 20 %
656 19-05-2020 13:14:17 23.3 C 20 %
657 19-05-2020 13:24:17 22.9 C 20 %
658 19-05-2020 13:34:17 22.2 C 20 %
659 19-05-2020 13:44:17 24.4 C 20 %
660 19-05-2020 13:54:17 26.7 C 20 %
661 19-05-2020 14:04:18 29.1 C 20 %
662 19-05-2020 14:14:18 30.2 C 20 %
663 19-05-2020 14:24:17 31.5 C 20 %
664 19-05-2020 14:34:17 32.7 C 20 %
665 19-05-2020 14:44:17 32.1 C 20 %
666 19-05-2020 14:54:17 32.6 C 20 %
667 19-05-2020 15:04:17 32.1 C 20 %
668 19-05-2020 15:14:18 29.1 C 20 %
669 19-05-2020 15:24:17 27.6 C 20 %
670 19-05-2020 15:34:17 27.1 C 20 %
671 19-05-2020 15:44:17 26.8 C 20 %
672 19-05-2020 15:54:17 26.4 C 20 %
673 19-05-2020 16:04:17 29.3 C 20 %
674 19-05-2020 16:14:18 28.5 C 20 %
675 19-05-2020 16:24:17 29.8 C 20 %
Sensor: Nr:Datum:Temp:Feuchte:
Aussen-T/F 676 19-05-2020 16:34:18 28 C 20 %
677 19-05-2020 16:44:18 27.2 C 20 %
678 19-05-2020 16:54:17 26.4 C 20 %
679 19-05-2020 17:04:17 29.4 C 20 %
680 19-05-2020 17:14:18 29.5 C 20 %
681 19-05-2020 17:24:17 31.2 C 20 %
682 19-05-2020 17:34:18 29.1 C 20 %
683 19-05-2020 17:44:18 30.4 C 20 %
684 19-05-2020 17:54:17 29.1 C 20 %
685 19-05-2020 18:04:18 29.4 C 20 %
686 19-05-2020 18:14:18 27.1 C 20 %
687 19-05-2020 18:24:18 25.9 C 20 %
688 19-05-2020 18:34:18 25.1 C 20 %
689 19-05-2020 18:44:18 24.9 C 20 %
690 19-05-2020 18:54:17 24.3 C 20 %
691 19-05-2020 19:04:17 24.5 C 20 %
692 19-05-2020 19:14:17 24.4 C 20 %
693 19-05-2020 19:24:18 24 C 20 %
694 19-05-2020 19:34:18 24.2 C 20 %
695 19-05-2020 19:44:18 23.6 C 20 %
696 19-05-2020 19:54:18 23.2 C 20 %
697 19-05-2020 20:04:18 22.8 C 20 %
698 19-05-2020 20:14:18 22.5 C 20 %
699 19-05-2020 20:25:17 22.3 C 20 %
700 19-05-2020 20:34:18 22 C 20 %
Sensor: Nr:Datum:Temp:Feuchte:
Aussen-T/F 701 19-05-2020 20:44:18 21.9 C 20 %
702 19-05-2020 20:55:17 21.6 C 20 %
703 19-05-2020 21:05:17 20.5 C 21 %
704 19-05-2020 21:14:18 19.1 C 24 %
705 19-05-2020 21:24:18 18.5 C 25 %
706 19-05-2020 21:34:18 18.1 C 25 %
707 19-05-2020 21:44:18 18.1 C 25 %
708 19-05-2020 21:55:17 17.9 C 26 %
709 19-05-2020 22:05:17 17.6 C 26 %
710 19-05-2020 22:14:18 17.5 C 27 %
711 19-05-2020 22:24:18 17.4 C 27 %
712 19-05-2020 22:35:17 16.9 C 27 %
713 19-05-2020 22:45:17 16.4 C 28 %
714 19-05-2020 22:54:17 15.7 C 30 %
715 19-05-2020 23:05:17 15.5 C 31 %
716 19-05-2020 23:15:17 15.4 C 31 %
717 19-05-2020 23:25:17 15.1 C 31 %
718 19-05-2020 23:44:17 14.9 C 32 %
719 19-05-2020 23:44:18 14.8 C 33 %
720 19-05-2020 23:54:18 15.1 C 32 %
721 20-05-2020 00:05:17 15.3 C 32 %
722 20-05-2020 00:15:17 15.4 C 32 %
723 20-05-2020 00:25:17 15.1 C 32 %
724 20-05-2020 00:35:17 14.7 C 34 %
725 20-05-2020 00:44:18 14.2 C 34 %
Sensor: Nr:Datum:Temp:Feuchte:
Aussen-T/F 726 20-05-2020 00:54:18 13.8 C 35 %
727 20-05-2020 01:05:17 13.5 C 35 %
728 20-05-2020 01:14:18 13.4 C 36 %
729 20-05-2020 01:24:18 13.4 C 36 %
730 20-05-2020 01:35:17 13 C 36 %
731 20-05-2020 01:45:17 13 C 36 %
732 20-05-2020 01:55:17 12.8 C 37 %
733 20-05-2020 02:05:17 12.7 C 37 %
734 20-05-2020 02:15:17 12.5 C 38 %
735 20-05-2020 02:25:17 12.5 C 38 %
736 20-05-2020 02:35:17 12.6 C 38 %
737 20-05-2020 02:45:17 12.4 C 38 %
738 20-05-2020 02:55:17 12.2 C 38 %
739 20-05-2020 03:05:18 12.1 C 39 %
740 20-05-2020 03:15:18 11.9 C 40 %
741 20-05-2020 03:25:18 11.8 C 40 %
742 20-05-2020 03:35:18 11.8 C 40 %
743 20-05-2020 03:45:17 11.7 C 40 %
744 20-05-2020 03:55:17 11.7 C 40 %
745 20-05-2020 04:05:17 11.8 C 40 %
746 20-05-2020 04:15:17 11.6 C 40 %
747 20-05-2020 04:25:18 11.4 C 41 %
748 20-05-2020 04:35:17 11.7 C 41 %
749 20-05-2020 04:45:17 11.6 C 41 %
750 20-05-2020 04:55:17 11.1 C 41 %
Sensor: Nr:Datum:Temp:Feuchte:
Aussen-T/F 751 20-05-2020 05:05:17 10.8 C 42 %
752 20-05-2020 05:15:17 10.9 C 43 %
753 20-05-2020 05:25:17 11 C 42 %
754 20-05-2020 05:35:17 11.1 C 42 %
755 20-05-2020 05:45:18 11.2 C 42 %
756 20-05-2020 05:55:18 11.4 C 41 %
757 20-05-2020 06:05:18 11.5 C 41 %
758 20-05-2020 06:15:17 11.3 C 41 %
759 20-05-2020 06:25:17 11.4 C 41 %
760 20-05-2020 06:35:17 11.5 C 41 %
761 20-05-2020 06:45:18 11.4 C 41 %
762 20-05-2020 06:55:18 11.5 C 41 %
763 20-05-2020 07:05:17 11.2 C 41 %
764 20-05-2020 07:15:18 11.5 C 41 %
765 20-05-2020 07:25:18 11.7 C 41 %
766 20-05-2020 07:35:17 12.2 C 41 %
767 20-05-2020 07:45:17 12.8 C 40 %
768 20-05-2020 07:55:17 13.4 C 39 %
769 20-05-2020 08:05:18 13.6 C 39 %
770 20-05-2020 08:15:18 14.7 C 36 %
771 20-05-2020 08:25:18 15.3 C 35 %
772 20-05-2020 08:35:18 16 C 34 %
773 20-05-2020 08:45:18 16.2 C 33 %
774 20-05-2020 08:55:18 16.4 C 33 %
775 20-05-2020 09:05:17 16.8 C 33 %
Sensor: Nr:Datum:Temp:Feuchte:
Aussen-T/F 776 20-05-2020 09:15:17 17.2 C 32 %
777 20-05-2020 09:25:17 17.5 C 32 %
778 20-05-2020 09:35:17 18.1 C 31 %
779 20-05-2020 09:45:17 18.5 C 30 %
780 20-05-2020 09:55:17 18.6 C 30 %
781 20-05-2020 10:05:17 19.1 C 29 %
782 20-05-2020 10:15:17 19.4 C 29 %
783 20-05-2020 10:25:17 19.5 C 29 %
784 20-05-2020 10:35:17 19.7 C 28 %
785 20-05-2020 10:45:18 20.2 C 27 %
786 20-05-2020 10:55:18 19.7 C 28 %
787 20-05-2020 11:05:18 20.4 C 27 %
788 20-05-2020 11:15:17 20.8 C 26 %
789 20-05-2020 11:25:17 20.3 C 27 %
790 20-05-2020 11:35:18 20.1 C 27 %
791 20-05-2020 11:45:17 20.6 C 27 %
792 20-05-2020 11:55:18 20.8 C 27 %
793 20-05-2020 12:05:18 21.4 C 26 %
794 20-05-2020 12:15:17 21.2 C 25 %
795 20-05-2020 12:25:17 21.6 C 25 %
796 20-05-2020 12:35:18 21.3 C 25 %
797 20-05-2020 12:45:17 21.9 C 25 %
798 20-05-2020 12:55:17 22.2 C 24 %
799 20-05-2020 13:05:17 22.7 C 23 %
800 20-05-2020 13:15:18 22 C 23 %
Sensor: Nr:Datum:Temp:Feuchte:
Aussen-T/F 801 20-05-2020 13:25:18 23.8 C 21 %
802 20-05-2020 13:35:18 22.3 C 22 %
803 20-05-2020 13:45:17 24 C 21 %
804 20-05-2020 13:55:18 23.9 C 20 %
805 20-05-2020 14:05:17 27.2 C 20 %
806 20-05-2020 14:15:18 27.4 C 20 %
807 20-05-2020 14:25:18 26.5 C 20 %
808 20-05-2020 14:35:17 28 C 20 %
809 20-05-2020 14:45:18 31.7 C 20 %
810 20-05-2020 14:55:18 28.7 C 20 %
811 20-05-2020 15:05:17 26.4 C 20 %
812 20-05-2020 15:15:17 30.7 C 20 %
813 20-05-2020 15:25:17 31 C 20 %
814 20-05-2020 15:35:18 30.8 C 20 %
815 20-05-2020 15:45:17 31.8 C 20 %
816 20-05-2020 15:55:17 28.9 C 20 %
817 20-05-2020 16:05:17 30.8 C 20 %
818 20-05-2020 16:15:18 31.1 C 20 %
819 20-05-2020 16:25:18 27.2 C 20 %
820 20-05-2020 16:35:18 29.9 C 20 %
821 20-05-2020 16:45:18 28.9 C 20 %
822 20-05-2020 16:55:18 29.4 C 20 %
823 20-05-2020 17:05:18 30.4 C 20 %
824 20-05-2020 17:15:17 27.9 C 20 %
825 20-05-2020 17:25:17 27.9 C 20 %
Sensor: Nr:Datum:Temp:Feuchte:
Aussen-T/F 826 20-05-2020 17:35:17 29.4 C 20 %
827 20-05-2020 17:45:17 28.1 C 20 %
828 20-05-2020 17:55:17 27.4 C 20 %
829 20-05-2020 18:05:17 28.9 C 20 %
830 20-05-2020 18:15:18 26.7 C 20 %
831 20-05-2020 18:25:18 25.5 C 20 %
832 20-05-2020 18:35:17 24.9 C 20 %
833 20-05-2020 18:45:18 24.8 C 20 %
834 20-05-2020 18:55:18 23.7 C 20 %
835 20-05-2020 19:05:18 23.7 C 20 %
836 20-05-2020 19:15:17 23.6 C 20 %
837 20-05-2020 19:25:17 23.3 C 20 %
838 20-05-2020 19:35:18 22.9 C 20 %
839 20-05-2020 19:45:17 22.9 C 20 %
840 20-05-2020 19:55:17 22.5 C 20 %
841 20-05-2020 20:05:17 22.1 C 20 %
842 20-05-2020 20:15:17 21.7 C 20 %
843 20-05-2020 20:25:17 21.6 C 20 %
844 20-05-2020 20:35:17 21.3 C 20 %
845 20-05-2020 20:45:17 20.8 C 20 %
846 20-05-2020 20:55:17 20 C 22 %
847 20-05-2020 21:05:17 19.7 C 23 %
848 20-05-2020 21:15:17 19.7 C 23 %
849 20-05-2020 21:25:17 18.9 C 25 %
850 20-05-2020 21:35:17 17.9 C 27 %
Sensor: Nr:Datum:Temp:Feuchte:
Aussen-T/F 851 20-05-2020 21:45:17 17.6 C 27 %
852 20-05-2020 21:55:17 17.4 C 27 %
853 20-05-2020 22:05:18 17.3 C 28 %
854 20-05-2020 22:15:17 16.6 C 29 %
855 20-05-2020 22:25:17 16.7 C 29 %
856 20-05-2020 22:35:17 16.6 C 30 %
857 20-05-2020 22:45:18 16.7 C 30 %
858 20-05-2020 22:55:18 16.3 C 30 %
859 20-05-2020 23:05:17 16.2 C 30 %
860 20-05-2020 23:15:17 15.9 C 30 %
861 20-05-2020 23:25:17 16 C 30 %
862 20-05-2020 23:35:17 15.5 C 31 %
863 20-05-2020 23:45:18 15.4 C 31 %
864 20-05-2020 23:55:18 15.1 C 31 %
865 21-05-2020 00:05:18 14.7 C 32 %
866 21-05-2020 00:15:17 14.4 C 33 %
867 21-05-2020 00:25:17 14.4 C 33 %
868 21-05-2020 00:35:17 14.3 C 33 %
869 21-05-2020 00:45:17 14.5 C 33 %
870 21-05-2020 00:55:17 14.4 C 33 %
871 21-05-2020 01:05:17 14.4 C 33 %
872 21-05-2020 01:15:17 14.8 C 32 %
873 21-05-2020 01:25:18 14.5 C 32 %
874 21-05-2020 01:35:18 13.9 C 34 %
875 21-05-2020 01:45:17 13.4 C 35 %
Sensor: Nr:Datum:Temp:Feuchte:
Aussen-T/F 876 21-05-2020 01:55:17 13.3 C 35 %
877 21-05-2020 02:05:18 13.4 C 35 %
878 21-05-2020 02:15:17 13.5 C 35 %
879 21-05-2020 02:25:17 13.1 C 35 %
880 21-05-2020 02:35:17 13.1 C 35 %
881 21-05-2020 02:45:17 12.8 C 36 %
882 21-05-2020 02:55:17 12.8 C 36 %
883 21-05-2020 03:05:17 12.7 C 36 %
884 21-05-2020 03:15:17 12.5 C 37 %
885 21-05-2020 03:25:17 12.6 C 37 %
886 21-05-2020 03:35:18 12.3 C 37 %
887 21-05-2020 03:45:18 11.7 C 39 %
888 21-05-2020 03:55:18 11.5 C 40 %
889 21-05-2020 04:05:18 11.3 C 40 %
890 21-05-2020 04:15:17 11 C 40 %
891 21-05-2020 04:25:17 10.8 C 41 %
892 21-05-2020 04:35:17 10.6 C 42 %
893 21-05-2020 04:45:17 10.5 C 42 %
894 21-05-2020 04:55:17 10.3 C 43 %
895 21-05-2020 05:05:17 10.2 C 43 %
896 21-05-2020 05:15:18 10.1 C 43 %
897 21-05-2020 05:25:18 10 C 43 %
898 21-05-2020 05:35:17 9.8 C 44 %
899 21-05-2020 05:45:17 9.9 C 45 %
900 21-05-2020 05:55:17 9.8 C 45 %
Sensor: Nr:Datum:Temp:Feuchte:
Aussen-T/F 901 21-05-2020 06:05:17 9.8 C 45 %
902 21-05-2020 06:15:17 9.8 C 45 %
903 21-05-2020 06:25:17 10 C 44 %
904 21-05-2020 06:35:17 10 C 44 %
905 21-05-2020 06:45:17 10 C 44 %
906 21-05-2020 06:55:17 10 C 44 %
907 21-05-2020 07:05:17 10.1 C 44 %
908 21-05-2020 07:15:17 10.2 C 44 %
909 21-05-2020 07:25:17 10.5 C 44 %
910 21-05-2020 07:35:17 10.7 C 44 %
911 21-05-2020 07:45:17 10.9 C 44 %
912 21-05-2020 07:55:17 11.2 C 43 %
913 21-05-2020 08:05:17 11.4 C 43 %
914 21-05-2020 08:15:17 11.8 C 42 %
915 21-05-2020 08:25:17 11.9 C 42 %
916 21-05-2020 08:35:17 12.3 C 41 %
917 21-05-2020 08:45:18 13 C 39 %
918 21-05-2020 08:55:18 13.4 C 38 %
919 21-05-2020 09:05:17 14.3 C 36 %
920 21-05-2020 09:15:17 14.8 C 36 %
921 21-05-2020 09:25:18 15.3 C 35 %
922 21-05-2020 09:35:17 16.2 C 34 %
923 21-05-2020 09:45:17 16.8 C 33 %
924 21-05-2020 09:55:17 17.7 C 32 %
925 21-05-2020 10:05:17 18 C 31 %
Sensor: Nr:Datum:Temp:Feuchte:
Aussen-T/F 926 21-05-2020 10:15:18 18.4 C 31 %
927 21-05-2020 10:25:18 19.3 C 30 %
928 21-05-2020 10:35:17 20.2 C 27 %
929 21-05-2020 10:45:17 20.6 C 27 %
930 21-05-2020 10:55:17 21.2 C 26 %
931 21-05-2020 11:05:17 21.7 C 26 %
932 21-05-2020 11:15:17 22.2 C 24 %
933 21-05-2020 11:25:17 22.5 C 24 %
934 21-05-2020 11:35:17 22.8 C 23 %
935 21-05-2020 11:45:17 23.1 C 21 %
936 21-05-2020 11:55:17 23.3 C 22 %
937 21-05-2020 12:05:17 22.7 C 22 %
938 21-05-2020 12:15:17 22.8 C 22 %
939 21-05-2020 12:25:17 22.6 C 22 %
940 21-05-2020 12:35:18 23.7 C 21 %
941 21-05-2020 12:45:17 23.7 C 21 %
942 21-05-2020 12:55:17 23.8 C 21 %
943 21-05-2020 13:05:18 23.9 C 20 %
944 21-05-2020 13:15:17 24.1 C 20 %
945 21-05-2020 13:25:18 24.5 C 20 %
946 21-05-2020 13:35:18 25.5 C 20 %
947 21-05-2020 13:45:18 25.6 C 20 %
948 21-05-2020 13:55:19 29.1 C 20 %
949 21-05-2020 14:05:17 31.7 C 20 %
950 21-05-2020 14:15:18 31.4 C 20 %
Sensor: Nr:Datum:Temp:Feuchte:
Aussen-T/F 951 21-05-2020 14:25:18 33.4 C 20 %
952 21-05-2020 14:35:17 34.4 C 20 %
953 21-05-2020 14:45:18 35.4 C 20 %
954 21-05-2020 14:55:18 33.8 C 20 %
955 21-05-2020 15:05:18 35 C 20 %
956 21-05-2020 15:15:17 34.3 C 20 %
957 21-05-2020 15:25:17 36.2 C 20 %
958 21-05-2020 15:35:18 36 C 20 %
959 21-05-2020 15:45:17 34.8 C 20 %
960 21-05-2020 15:55:17 34.3 C 20 %
961 21-05-2020 16:05:18 33.9 C 20 %
962 21-05-2020 16:15:18 34.7 C 20 %
963 21-05-2020 16:25:18 35.2 C 20 %
964 21-05-2020 16:35:18 34.4 C 20 %
965 21-05-2020 16:45:17 34.2 C 20 %
966 21-05-2020 16:55:17 35.8 C 20 %
967 21-05-2020 17:05:17 36.1 C 20 %
968 21-05-2020 17:15:18 34.3 C 20 %
969 21-05-2020 17:25:18 34.4 C 20 %
970 21-05-2020 17:35:18 33.1 C 20 %
971 21-05-2020 17:45:17 33.3 C 20 %
972 21-05-2020 17:55:17 31.4 C 20 %
973 21-05-2020 18:05:18 33.3 C 20 %
974 21-05-2020 18:15:17 30 C 20 %
975 21-05-2020 18:25:17 28.3 C 20 %
Sensor: Nr:Datum:Temp:Feuchte:
Aussen-T/F 976 21-05-2020 18:35:17 27.8 C 20 %
977 21-05-2020 18:45:17 27.9 C 20 %
978 21-05-2020 18:55:17 27.9 C 20 %
979 21-05-2020 19:05:17 27.8 C 20 %
980 21-05-2020 19:15:17 27.7 C 20 %
981 21-05-2020 19:25:17 27.7 C 20 %
982 21-05-2020 19:35:17 27.2 C 20 %
983 21-05-2020 19:45:17 26.7 C 20 %
984 21-05-2020 19:55:17 26.3 C 20 %
985 21-05-2020 20:05:18 25.7 C 20 %
986 21-05-2020 20:15:17 24.3 C 20 %
987 21-05-2020 20:25:17 24 C 20 %
988 21-05-2020 20:35:17 24.3 C 20 %
989 21-05-2020 20:45:18 23.5 C 20 %
990 21-05-2020 20:55:18 22.5 C 21 %
991 21-05-2020 21:05:17 21.9 C 23 %
992 21-05-2020 21:15:17 21.1 C 24 %
993 21-05-2020 21:25:17 21.1 C 24 %
994 21-05-2020 21:35:18 20.4 C 25 %
995 21-05-2020 21:45:17 20 C 25 %
996 21-05-2020 21:55:17 19.8 C 26 %
997 21-05-2020 22:05:17 19.6 C 27 %
998 21-05-2020 22:15:17 19.6 C 27 %
999 21-05-2020 22:25:17 19.1 C 28 %
1000 21-05-2020 22:35:17 18.9 C 28 %
Sensor: Nr:Datum:Temp:Feuchte:
Aussen-T/F 1001 21-05-2020 22:45:18 19 C 28 %
1002 21-05-2020 22:55:18 19.3 C 27 %
1003 21-05-2020 23:05:18 19.7 C 27 %
1004 21-05-2020 23:15:17 19.3 C 27 %
1005 21-05-2020 23:25:17 19 C 27 %
1006 21-05-2020 23:35:17 18.4 C 29 %
1007 21-05-2020 23:45:17 18.1 C 29 %
1008 21-05-2020 23:55:17 17.8 C 30 %
Sensor: Nr:Datum:Temp:Feuchte:

Legende:
   Min
   Max


Maximal/Minimal-Werte vom 15.05.2020 - 21.05.2020

Sensor Min Max Avg
Temp
(Aussen-T/F)
1.4 °C
15-05-2020  06:04:17
36.2 °C
21-05-2020  15:25:17
15.9 °C
Feuchte
(Aussen-T/F)
20 %
15-05-2020  11:14:17
46 %
15-05-2020  06:34:17
28.95 %
Temp
(G-T/H)
°C
-- 
°C 0 °C
Feuchte
(G-T/H)
%
-- 
% 0 %

Die Daten stammen von einer Davis Vantage Pro 2 Wetter-Station und werden unter Linux mit der Software wview2wettercgi und aufbereitet. Alle Angaben erfolgen ohne Gewähr für ihre Vollständigkeit oder Richtigkeit.
Kontakt: Rainer Krienke krienke@uni-koblenz.de . Meine Webseiten an der Uni Koblenz oder privat.
Version: $Revision: 0.78 $